createdAt,value
2023-01-13T00:00:18.835Z,100482.84
2023-01-13T00:02:50.025Z,100482.84
2023-01-13T00:05:20.014Z,100486.62
2023-01-13T00:07:53.210Z,100493.06
2023-01-13T00:10:24.141Z,100491.47
2023-01-13T00:12:51.562Z,100491.47
2023-01-13T00:15:59.199Z,100487.97
2023-01-13T00:18:26.581Z,100481.78
2023-01-13T00:21:15.159Z,100480.19
2023-01-13T00:23:48.098Z,100475.09
2023-01-13T00:26:52.335Z,100466.22
2023-01-13T00:29:23.486Z,100465.44
2023-01-13T00:32:33.028Z,100466.22
2023-01-13T00:35:00.134Z,100461.13
2023-01-13T00:37:41.282Z,100457.66
2023-01-13T00:43:37.512Z,100445.28
2023-01-13T00:46:09.379Z,100443.69
2023-01-13T00:48:59.481Z,100439.41
2023-01-13T00:55:17.190Z,100440.47
2023-01-13T00:57:50.264Z,100448.00
2023-01-13T01:00:36.576Z,100439.94
2023-01-13T01:03:23.097Z,100451.22
2023-01-13T01:06:33.183Z,100446.41
2023-01-13T01:09:06.012Z,100448.56
2023-01-13T01:31:25.274Z,100456.09
2023-01-13T01:33:59.124Z,100450.22
2023-01-13T01:36:48.879Z,100447.53
2023-01-13T01:39:36.354Z,100437.06
2023-01-13T01:42:03.294Z,100430.06
2023-01-13T01:44:41.975Z,100421.75
2023-01-13T01:47:17.624Z,100417.44
2023-01-13T01:49:47.482Z,100422.81
2023-01-13T01:52:40.412Z,100412.06
2023-01-13T01:55:45.582Z,100415.31
2023-01-13T01:58:29.505Z,100410.47
2023-01-13T02:01:02.683Z,100407.28
2023-01-13T02:09:56.334Z,100401.34
2023-01-13T02:13:04.281Z,100400.56
2023-01-13T02:19:00.849Z,100378.28
2023-01-13T02:22:10.020Z,100377.47
2023-01-13T02:25:11.257Z,100373.44
2023-01-13T02:27:48.240Z,100371.06
2023-01-13T02:30:24.947Z,100372.94
2023-01-13T02:33:28.653Z,100373.75
2023-01-13T02:36:11.067Z,100375.63
2023-01-13T02:38:59.957Z,100371.06
2023-01-13T02:42:04.438Z,100371.31
2023-01-13T02:48:02.000Z,100359.28
2023-01-13T02:54:00.050Z,100355.25
2023-01-13T02:56:50.720Z,100349.88
2023-01-13T02:59:42.917Z,100348.28
2023-01-13T03:02:28.488Z,100340.50
2023-01-13T03:05:15.919Z,100328.69
2023-01-13T03:08:05.460Z,100339.69
2023-01-13T03:10:40.845Z,100328.94
2023-01-13T03:20:32.608Z,100332.47
2023-01-13T03:23:15.145Z,100325.22
2023-01-13T03:29:47.428Z,100326.31
2023-01-13T03:35:57.290Z,100327.94
2023-01-13T03:45:24.863Z,100335.22
2023-01-13T04:00:06.336Z,100319.34
2023-01-13T04:06:16.263Z,100331.72
2023-01-13T04:09:22.827Z,100329.34
2023-01-13T04:12:29.348Z,100326.94
2023-01-13T04:15:02.566Z,100332.31
2023-01-13T04:18:08.319Z,100337.69
2023-01-13T04:21:13.452Z,100333.66
2023-01-13T04:24:24.534Z,100334.47
2023-01-13T04:30:37.644Z,100341.97
2023-01-13T04:36:11.984Z,100356.78
2023-01-13T04:38:45.671Z,100358.66
2023-01-13T04:41:17.854Z,100358.66
2023-01-13T04:43:56.123Z,100353.28
2023-01-13T04:53:00.760Z,100354.34
2023-01-13T05:02:20.518Z,100346.88
2023-01-13T05:05:31.506Z,100340.97
2023-01-13T05:14:52.894Z,100335.87
2023-01-13T05:17:59.111Z,100329.19
2023-01-13T05:24:09.629Z,100315.75
2023-01-13T05:26:40.859Z,100312.00
2023-01-13T05:29:18.170Z,100306.38
2023-01-13T05:32:22.898Z,100309.06
2023-01-13T05:34:52.783Z,100305.56
2023-01-13T05:37:22.261Z,100301.78
2023-01-13T05:39:50.026Z,100306.06
2023-01-13T05:42:31.010Z,100306.06
2023-01-13T05:45:08.227Z,100306.06
2023-01-13T05:47:40.442Z,100303.94
2023-01-13T05:50:10.917Z,100301.25
2023-01-13T05:52:43.652Z,100294.00
2023-01-13T05:55:49.926Z,100290.50
2023-01-13T06:01:23.129Z,100302.84
2023-01-13T06:03:50.186Z,100303.12
2023-01-13T06:06:20.124Z,100310.09
2023-01-13T06:08:50.772Z,100306.66
2023-01-13T06:11:17.559Z,100299.97
2023-01-13T06:13:51.055Z,100297.81
2023-01-13T06:16:20.044Z,100300.22
2023-01-13T06:18:50.006Z,100294.28
2023-01-13T06:21:23.182Z,100299.09
2023-01-13T06:23:49.977Z,100293.19
2023-01-13T06:26:20.429Z,100287.25
2023-01-13T06:28:50.875Z,100284.56
2023-01-13T06:31:18.073Z,100270.59
2023-01-13T06:33:54.916Z,100261.22
2023-01-13T06:36:36.286Z,100257.44
2023-01-13T06:39:07.519Z,100242.12
2023-01-13T06:41:34.677Z,100240.56
2023-01-13T06:44:01.395Z,100242.69
2023-01-13T06:46:37.069Z,100260.41
2023-01-13T06:49:12.769Z,100273.81
2023-01-13T06:51:42.694Z,100281.06
2023-01-13T06:54:12.770Z,100267.37
2023-01-13T06:56:42.763Z,100265.75
2023-01-13T06:59:12.384Z,100276.25
2023-01-13T07:01:43.873Z,100274.66
2023-01-13T07:04:11.124Z,100280.53
2023-01-13T07:06:43.559Z,100288.88
2023-01-13T07:09:16.466Z,100290.47
2023-01-13T07:11:46.566Z,100295.28
2023-01-13T07:14:24.945Z,100295.28
2023-01-13T07:16:53.093Z,100299.03
2023-01-13T07:19:23.633Z,100310.84
2023-01-13T07:21:54.218Z,100324.25
2023-01-13T07:24:26.820Z,100327.16
2023-01-13T07:26:56.935Z,100334.97
2023-01-13T07:29:25.595Z,100320.69
2023-01-13T07:31:59.458Z,100313.97
2023-01-13T07:34:28.943Z,100312.03
2023-01-13T07:36:55.740Z,100306.91
2023-01-13T07:39:22.472Z,100311.44
2023-01-13T07:41:52.382Z,100309.53
2023-01-13T07:44:21.918Z,100321.31
2023-01-13T07:46:49.159Z,100328.31
2023-01-13T07:49:22.561Z,100325.63
2023-01-13T07:51:52.221Z,100331.53
2023-01-13T07:54:39.089Z,100341.47
2023-01-13T07:57:12.389Z,100342.81
2023-01-13T07:59:39.158Z,100347.09
2023-01-13T08:02:20.962Z,100335.78
2023-01-13T08:04:49.312Z,100340.91
2023-01-13T08:07:22.031Z,100340.91
2023-01-13T08:09:51.801Z,100335.28
2023-01-13T08:12:18.608Z,100325.34
2023-01-13T08:14:48.772Z,100318.37
2023-01-13T08:17:21.095Z,100301.47
2023-01-13T08:19:50.903Z,100293.41
2023-01-13T08:22:18.185Z,100276.19
2023-01-13T08:24:45.376Z,100278.09
2023-01-13T08:27:20.623Z,100289.34
2023-01-13T08:29:51.059Z,100291.53
2023-01-13T08:32:17.833Z,100291.22
2023-01-13T08:34:50.779Z,100300.38
2023-01-13T08:37:26.142Z,100329.13
2023-01-13T08:40:01.633Z,100358.38
2023-01-13T08:42:28.486Z,100373.69
2023-01-13T08:44:58.598Z,100377.72
2023-01-13T08:47:30.168Z,100375.84
2023-01-13T08:50:03.176Z,100376.63
2023-01-13T08:52:29.991Z,100373.16
2023-01-13T08:55:00.136Z,100394.34
2023-01-13T08:57:30.940Z,100407.78
2023-01-13T09:00:00.851Z,100398.62
2023-01-13T09:02:33.310Z,100400.81
2023-01-13T09:05:04.948Z,100421.22
2023-01-13T09:07:42.555Z,100407.78
2023-01-13T09:10:18.397Z,100397.03
2023-01-13T09:12:51.896Z,100416.94
2023-01-13T09:15:22.145Z,100403.50
2023-01-13T09:17:54.956Z,100392.75
2023-01-13T09:20:23.333Z,100398.12
2023-01-13T09:22:50.070Z,100379.31
2023-01-13T09:25:19.759Z,100366.97
2023-01-13T09:27:46.621Z,100362.41
2023-01-13T09:30:21.987Z,100353.25
2023-01-13T09:32:57.359Z,100352.44
2023-01-13T09:35:28.895Z,100362.09
2023-01-13T09:37:59.037Z,100356.19
2023-01-13T09:40:28.509Z,100359.91
2023-01-13T09:43:05.244Z,100359.63
2023-01-13T09:45:39.905Z,100353.44
2023-01-13T09:48:06.829Z,100345.91
2023-01-13T09:50:45.797Z,100337.31
2023-01-13T09:53:21.729Z,100324.97
2023-01-13T09:55:54.883Z,100323.38
2023-01-13T09:58:28.266Z,100324.44
2023-01-13T10:01:32.332Z,100310.19
2023-01-13T10:04:25.663Z,100304.28
2023-01-13T10:06:57.038Z,100306.19
2023-01-13T10:09:51.669Z,100290.06
2023-01-13T10:12:26.118Z,100299.22
2023-01-13T10:14:58.532Z,100296.53
2023-01-13T10:17:42.789Z,100298.69
2023-01-13T10:20:21.754Z,100286.62
2023-01-13T10:23:26.417Z,100289.81
2023-01-13T10:26:04.663Z,100292.78
2023-01-13T10:28:40.537Z,100284.44
2023-01-13T10:31:11.538Z,100288.22
2023-01-13T10:33:41.090Z,100281.53
2023-01-13T10:36:21.237Z,100275.06
2023-01-13T10:38:55.643Z,100276.69
2023-01-13T10:41:29.899Z,100270.72
2023-01-13T10:44:15.553Z,100264.78
2023-01-13T10:47:22.054Z,100258.81
2023-01-13T10:50:12.085Z,100249.41
2023-01-13T10:53:00.563Z,100252.31
2023-01-13T10:55:38.740Z,100243.69
2023-01-13T10:58:19.085Z,100238.31
2023-01-13T11:01:01.290Z,100236.13
2023-01-13T11:03:41.761Z,100238.31
2023-01-13T11:06:10.561Z,100243.69
2023-01-13T11:08:46.290Z,100247.97
2023-01-13T11:11:41.876Z,100245.06
2023-01-13T11:14:31.912Z,100244.25
2023-01-13T11:17:02.331Z,100241.03
2023-01-13T11:19:38.084Z,100226.81
2023-01-13T11:22:17.103Z,100218.25
2023-01-13T11:24:51.020Z,100214.78
2023-01-13T11:27:41.896Z,100217.47
2023-01-13T11:30:33.371Z,100211.56
2023-01-13T11:33:13.465Z,100210.75
2023-01-13T11:36:07.744Z,100216.94
2023-01-13T11:38:57.810Z,100211.56
2023-01-13T11:41:42.744Z,100220.41
2023-01-13T11:44:29.877Z,100226.09
2023-01-13T11:47:00.220Z,100222.88
2023-01-13T11:49:33.279Z,100216.13
2023-01-13T11:52:39.330Z,100217.50
2023-01-13T11:55:22.423Z,100216.44
2023-01-13T11:58:07.798Z,100210.56
2023-01-13T12:00:52.981Z,100204.59
2023-01-13T12:03:33.511Z,100205.19
2023-01-13T12:06:14.196Z,100207.88
2023-01-13T12:09:07.591Z,100202.50
2023-01-13T12:11:49.011Z,100197.63
2023-01-13T12:14:51.267Z,100204.88
2023-01-13T12:17:45.560Z,100184.19
2023-01-13T12:20:45.750Z,100176.63
2023-01-13T12:23:34.815Z,100171.25
2023-01-13T12:26:11.403Z,100165.87
2023-01-13T12:29:00.274Z,100167.75
2023-01-13T12:31:28.698Z,100176.09
2023-01-13T12:34:22.642Z,100176.09
2023-01-13T12:37:26.686Z,100178.28
2023-01-13T12:40:11.609Z,100178.81
2023-01-13T12:42:51.065Z,100179.91
2023-01-13T12:45:31.429Z,100179.09
2023-01-13T12:48:24.246Z,100174.31
2023-01-13T12:51:20.684Z,100156.28
2023-01-13T12:53:48.327Z,100165.44
2023-01-13T12:56:43.523Z,100152.31
2023-01-13T12:59:19.625Z,100148.31
2023-01-13T13:02:12.514Z,100153.66
2023-01-13T13:04:48.408Z,100152.06
2023-01-13T13:07:20.589Z,100153.66
2023-01-13T13:09:55.638Z,100148.31
2023-01-13T13:13:02.767Z,100142.94
2023-01-13T13:15:32.482Z,100149.88
2023-01-13T13:18:06.715Z,100140.75
2023-01-13T13:21:00.318Z,100145.03
2023-01-13T13:23:37.277Z,100148.53
2023-01-13T13:26:18.973Z,100141.75
2023-01-13T13:29:32.035Z,100141.75
2023-01-13T13:32:13.556Z,100144.44
2023-01-13T13:35:01.996Z,100148.75
2023-01-13T13:38:00.045Z,100140.16
2023-01-13T13:40:41.775Z,100147.12
2023-01-13T13:43:16.118Z,100140.16
2023-01-13T13:45:55.242Z,100147.12
2023-01-13T13:48:31.124Z,100151.47
2023-01-13T13:51:21.947Z,100157.38
2023-01-13T13:53:52.715Z,100153.91
2023-01-13T13:56:27.581Z,100156.84
2023-01-13T13:58:57.636Z,100153.66
2023-01-13T14:01:33.122Z,100159.03
2023-01-13T14:04:25.767Z,100161.19
2023-01-13T14:07:24.724Z,100165.50
2023-01-13T14:09:58.580Z,100167.66
2023-01-13T14:12:38.347Z,100186.47
2023-01-13T14:15:35.655Z,100183.28
2023-01-13T14:18:10.299Z,100187.03
2023-01-13T14:20:40.560Z,100187.03
2023-01-13T14:23:07.934Z,100185.44
2023-01-13T14:25:41.947Z,100194.59
2023-01-13T14:28:22.740Z,100190.56
2023-01-13T14:30:54.752Z,100189.78
2023-01-13T14:33:32.632Z,100187.09
2023-01-13T14:36:21.881Z,100183.31
2023-01-13T14:39:03.630Z,100184.62
2023-01-13T14:41:39.564Z,100194.03
2023-01-13T14:44:24.653Z,100187.03
2023-01-13T14:46:58.421Z,100187.56
2023-01-13T14:49:52.158Z,100183.28
2023-01-13T14:52:24.424Z,100180.28
2023-01-13T14:55:19.245Z,100188.66
2023-01-13T14:57:51.809Z,100194.03
2023-01-13T15:00:27.321Z,100192.41
2023-01-13T15:02:57.216Z,100192.41
2023-01-13T15:05:29.424Z,100189.22
2023-01-13T15:08:05.195Z,100199.97
2023-01-13T15:10:36.069Z,100198.38
2023-01-13T15:13:05.828Z,100193.00
2023-01-13T15:15:39.673Z,100187.09
2023-01-13T15:18:15.833Z,100193.56
2023-01-13T15:20:51.094Z,100194.62
2023-01-13T15:23:21.465Z,100190.34
2023-01-13T15:25:51.069Z,100194.13
2023-01-13T15:28:23.940Z,100199.47
2023-01-13T15:30:55.667Z,100203.25
2023-01-13T15:33:22.984Z,100209.69
2023-01-13T15:35:53.327Z,100208.94
2023-01-13T15:38:25.597Z,100212.97
2023-01-13T15:40:56.049Z,100215.66
2023-01-13T15:43:26.622Z,100209.19
2023-01-13T15:45:59.544Z,100219.13
2023-01-13T15:48:28.220Z,100216.16
2023-01-13T15:50:58.127Z,100216.41
2023-01-13T15:53:31.587Z,100211.81
2023-01-13T15:56:02.633Z,100219.63
2023-01-13T15:58:35.875Z,100211.25
2023-01-13T16:01:06.284Z,100226.28
2023-01-13T16:03:36.205Z,100223.59
2023-01-13T16:06:03.185Z,100227.91
2023-01-13T16:08:32.514Z,100227.91
2023-01-13T16:10:59.323Z,100230.59
2023-01-13T16:13:26.424Z,100238.13
2023-01-13T16:15:59.105Z,100238.13
2023-01-13T16:18:34.791Z,100238.69
2023-01-13T16:21:04.855Z,100244.03
2023-01-13T16:23:37.481Z,100244.03
2023-01-13T16:26:25.240Z,100237.09
2023-01-13T16:28:55.945Z,100245.44
2023-01-13T16:31:33.301Z,100251.59
2023-01-13T16:37:25.092Z,100255.94
2023-01-13T16:39:54.951Z,100252.16
2023-01-13T16:45:56.113Z,100238.44
2023-01-13T16:49:00.345Z,100243.53
2023-01-13T16:55:07.807Z,100249.97
2023-01-13T16:58:02.335Z,100255.09
2023-01-13T17:03:43.372Z,100256.97
2023-01-13T17:09:44.825Z,100268.50
2023-01-13T17:22:16.033Z,100266.09
2023-01-13T17:27:56.739Z,100274.44
2023-01-13T17:52:29.495Z,100270.97
2023-01-13T17:55:01.652Z,100244.59
2023-01-13T17:58:07.726Z,100219.38
2023-01-13T18:00:34.677Z,100216.16
2023-01-13T18:03:07.923Z,100249.19
2023-01-13T18:05:37.740Z,100266.63
2023-01-13T18:08:12.675Z,100270.91
2023-01-13T18:10:58.265Z,100273.31
2023-01-13T18:13:49.887Z,100281.09
2023-01-13T18:19:48.521Z,100328.87
2023-01-13T18:22:19.698Z,100364.31
2023-01-13T18:28:28.218Z,100367.53
2023-01-13T18:38:13.046Z,100385.78
2023-01-13T18:43:53.483Z,100391.66
2023-01-13T19:20:13.588Z,100369.91
2023-01-13T19:26:08.576Z,100377.72
2023-01-13T19:28:41.295Z,100379.87
2023-01-13T19:31:27.127Z,100390.91
2023-01-13T19:50:32.014Z,100389.87
2023-01-13T20:03:23.324Z,100414.34
2023-01-13T20:06:09.071Z,100442.78
2023-01-13T20:12:33.614Z,100461.34
2023-01-13T20:24:38.935Z,100502.41
2023-01-13T20:27:45.627Z,100525.50
2023-01-13T20:43:05.387Z,100524.41
2023-01-13T20:59:14.416Z,100515.06
2023-01-13T21:12:06.440Z,100531.16
2023-01-13T21:21:15.329Z,100530.09
2023-01-13T21:30:21.628Z,100540.03
2023-01-13T21:42:36.538Z,100554.28
2023-01-13T21:45:33.932Z,100551.59
2023-01-13T21:54:33.055Z,100541.09
2023-01-13T22:03:54.413Z,100554.03
2023-01-13T22:09:41.556Z,100541.13
2023-01-13T22:12:10.571Z,100553.47
2023-01-13T22:21:50.176Z,100557.25
2023-01-13T22:24:39.427Z,100544.91
2023-01-13T22:27:43.889Z,100550.03
2023-01-13T22:30:22.598Z,100553.50
2023-01-13T22:32:49.876Z,100557.28
2023-01-13T22:35:17.310Z,100560.75
2023-01-13T22:41:35.146Z,100557.00
2023-01-13T22:50:44.939Z,100559.37
2023-01-13T23:00:09.972Z,100566.94
2023-01-13T23:02:39.052Z,100571.75
2023-01-13T23:05:09.850Z,100573.38
2023-01-13T23:07:39.238Z,100584.12
2023-01-13T23:10:06.653Z,100582.53
2023-01-13T23:12:37.058Z,100574.47
2023-01-13T23:15:04.737Z,100564.28
2023-01-13T23:17:37.401Z,100554.59
2023-01-13T23:20:04.809Z,100561.03
2023-01-13T23:22:31.944Z,100565.31
2023-01-13T23:25:02.383Z,100553.78
2023-01-13T23:27:29.701Z,100560.25
2023-01-13T23:29:59.901Z,100564.81
2023-01-13T23:32:27.139Z,100567.75
2023-01-13T23:34:57.553Z,100573.94
2023-01-13T23:37:27.903Z,100563.47
2023-01-13T23:39:56.668Z,100564.56
2023-01-13T23:42:23.774Z,100575.28
2023-01-13T23:44:54.069Z,100586.81
2023-01-13T23:47:23.526Z,100594.34
2023-01-13T23:49:57.609Z,100587.66
2023-01-13T23:52:28.196Z,100586.56
2023-01-13T23:54:55.311Z,100579.59
2023-01-13T23:57:24.868Z,100577.16
2023-01-13T23:59:54.806Z,100573.44
